Time;durP1;ratioP1;P1;durP2;ratioP2;P2;SDS_P1;SDS_P2;PMS_P1;PMS_P2;Temp;Humidity;BMP_temperature;BMP_pressure;BME280_temperature;BME280_humidity;BME280_pressure;Samples;Min_cycle;Max_cycle;Signal;HPM_P1;HPM_P2
2021/09/15 00:00:43;;;;;;;12.82;9.05;;;20.00;75.00;;;;;;5038482;28;20026;-72
2021/09/15 00:03:08;;;;;;;13.45;8.75;;;19.90;75.30;;;;;;5039739;28;20156;-72
2021/09/15 00:05:34;;;;;;;15.77;9.32;;;19.90;75.10;;;;;;5039669;28;20017;-72
2021/09/15 00:08:00;;;;;;;14.13;8.95;;;19.90;75.30;;;;;;5039914;28;20060;-72
2021/09/15 00:10:26;;;;;;;15.38;9.65;;;19.90;75.00;;;;;;5039199;28;20029;-72
2021/09/15 00:12:51;;;;;;;12.27;8.82;;;19.90;75.10;;;;;;5038255;28;20021;-72
2021/09/15 00:15:17;;;;;;;16.52;10.77;;;20.00;75.00;;;;;;5024966;28;20030;-72
2021/09/15 00:17:43;;;;;;;13.32;9.40;;;19.90;75.20;;;;;;5039769;28;20095;-72
2021/09/15 00:20:09;;;;;;;16.30;10.65;;;19.90;75.00;;;;;;5039353;28;20022;-72
2021/09/15 00:22:35;;;;;;;14.10;10.38;;;19.90;75.70;;;;;;5037118;28;20061;-72
2021/09/15 00:25:01;;;;;;;16.55;10.18;;;20.00;75.20;;;;;;5039018;28;20032;-71
2021/09/15 00:27:27;;;;;;;16.50;11.48;;;20.00;75.10;;;;;;5039485;28;20026;-72
2021/09/15 00:29:53;;;;;;;19.00;10.73;;;20.00;76.20;;;;;;5039479;28;20104;-72
2021/09/15 00:32:19;;;;;;;16.60;10.25;;;20.00;75.90;;;;;;5039376;28;20025;-72
2021/09/15 00:34:45;;;;;;;17.17;11.45;;;20.00;75.70;;;;;;5039168;28;20136;-72
2021/09/15 00:37:11;;;;;;;23.80;13.18;;;20.00;76.10;;;;;;5039221;28;20099;-71
2021/09/15 00:39:37;;;;;;;16.83;11.40;;;20.00;76.50;;;;;;5038814;28;20072;-72
2021/09/15 00:42:03;;;;;;;14.55;9.93;;;20.00;75.80;;;;;;5038940;28;20026;-71
2021/09/15 00:44:29;;;;;;;15.43;10.18;;;20.00;75.50;;;;;;5039052;28;20017;-71
2021/09/15 00:46:55;;;;;;;15.85;10.25;;;20.00;75.40;;;;;;5039084;28;20491;-72
2021/09/15 00:49:21;;;;;;;16.02;9.93;;;20.00;75.10;;;;;;5038990;28;20033;-71
2021/09/15 00:51:47;;;;;;;17.98;11.20;;;20.00;75.00;;;;;;5037545;28;20087;-71
2021/09/15 00:54:15;;;;;;;18.90;11.77;;;20.00;76.30;;;;;;5038356;28;20052;-72
2021/09/15 00:56:41;;;;;;;21.70;11.60;;;20.00;75.40;;;;;;5039063;28;20049;-72
2021/09/15 00:59:07;;;;;;;18.33;11.18;;;20.00;75.90;;;;;;5038791;28;20359;-71
2021/09/15 01:01:33;;;;;;;14.98;10.77;;;20.00;75.40;;;;;;5038667;28;20033;-72
2021/09/15 01:04:03;;;;;;;15.93;10.63;;;20.00;75.40;;;;;;5038567;28;20026;-72
2021/09/15 01:06:33;;;;;;;17.45;11.38;;;20.00;75.10;;;;;;5038643;28;20021;-71
2021/09/15 01:09:00;;;;;;;19.98;11.30;;;20.00;75.00;;;;;;5037384;28;20033;-71
2021/09/15 01:11:28;;;;;;;19.02;11.82;;;20.00;75.80;;;;;;5038743;28;20168;-72
2021/09/15 01:13:55;;;;;;;19.55;12.13;;;20.00;75.40;;;;;;5036531;28;20032;-71
2021/09/15 01:16:20;;;;;;;18.05;11.68;;;20.00;75.80;;;;;;5027314;28;20510;-72
2021/09/15 01:18:49;;;;;;;20.77;13.05;;;20.00;76.10;;;;;;5038329;28;20108;-71
2021/09/15 01:21:15;;;;;;;23.10;13.68;;;20.00;76.80;;;;;;5038408;28;20014;-71
2021/09/15 01:23:41;;;;;;;22.63;14.02;;;20.00;77.10;;;;;;5035379;28;20411;-71
2021/09/15 01:26:07;;;;;;;19.13;12.20;;;20.00;77.00;;;;;;5038262;28;20056;-71
2021/09/15 01:28:33;;;;;;;23.58;12.43;;;20.00;77.10;;;;;;5038257;28;20061;-72
2021/09/15 01:30:59;;;;;;;20.50;13.02;;;20.00;76.60;;;;;;5038274;28;20117;-72
2021/09/15 01:33:25;;;;;;;18.10;10.88;;;20.00;77.50;;;;;;5037817;28;20064;-71
2021/09/15 01:35:51;;;;;;;15.60;10.15;;;20.00;77.50;;;;;;5036815;28;20029;-72
2021/09/15 01:38:17;;;;;;;13.02;8.82;;;20.00;78.40;;;;;;5037853;28;20025;-72
2021/09/15 01:40:43;;;;;;;15.40;9.55;;;20.00;78.00;;;;;;5037770;28;20106;-71
2021/09/15 01:43:09;;;;;;;14.60;8.27;;;20.00;78.60;;;;;;5037700;28;20031;-72
2021/09/15 01:45:36;;;;;;;16.50;7.88;;;20.00;78.00;;;;;;5038134;28;20422;-71
2021/09/15 01:48:01;;;;;;;12.90;6.75;;;20.00;77.40;;;;;;5037789;28;20040;-71
2021/09/15 01:50:27;;;;;;;12.95;7.30;;;20.00;77.40;;;;;;5037958;28;20104;-72
2021/09/15 01:52:53;;;;;;;15.40;8.45;;;20.00;77.50;;;;;;5037858;28;20476;-72
2021/09/15 01:55:20;;;;;;;13.27;7.43;;;20.00;78.10;;;;;;5037624;28;20460;-71
2021/09/15 01:57:46;;;;;;;12.02;7.50;;;20.00;77.70;;;;;;5037598;28;20476;-72
2021/09/15 02:00:12;;;;;;;13.52;8.82;;;20.00;78.00;;;;;;5037707;28;20056;-72
2021/09/15 02:02:38;;;;;;;14.35;8.60;;;19.90;78.00;;;;;;5037630;28;20096;-72
2021/09/15 02:05:04;;;;;;;14.55;7.93;;;19.90;78.10;;;;;;5037667;28;20107;-72
2021/09/15 02:07:30;;;;;;;10.55;7.22;;;19.90;78.50;;;;;;5037455;28;20031;-72
2021/09/15 02:09:55;;;;;;;9.95;7.38;;;19.90;78.20;;;;;;5037399;28;20190;-71
2021/09/15 02:12:21;;;;;;;14.75;8.98;;;20.00;79.40;;;;;;5037347;28;20378;-72
2021/09/15 02:14:47;;;;;;;11.48;7.18;;;19.90;80.70;;;;;;5028457;28;20490;-72
2021/09/15 02:17:13;;;;;;;13.32;7.07;;;19.90;79.40;;;;;;5033314;28;20527;-72
2021/09/15 02:19:39;;;;;;;12.55;6.80;;;19.90;79.70;;;;;;5037619;28;20064;-72
2021/09/15 02:22:05;;;;;;;10.85;7.13;;;19.90;79.30;;;;;;5034630;28;20022;-71
2021/09/15 02:24:31;;;;;;;10.85;6.65;;;19.90;79.70;;;;;;5037176;28;20024;-71
2021/09/15 02:26:57;;;;;;;9.68;6.18;;;19.90;79.80;;;;;;5037226;28;20491;-72
2021/09/15 02:29:23;;;;;;;11.27;6.43;;;19.90;79.50;;;;;;5037525;28;20546;-72
2021/09/15 02:31:48;;;;;;;12.88;7.43;;;19.90;80.40;;;;;;5037171;28;20499;-72
2021/09/15 02:34:14;;;;;;;11.20;7.07;;;19.80;80.10;;;;;;5035917;28;20132;-71
2021/09/15 02:36:40;;;;;;;10.93;6.93;;;19.80;79.70;;;;;;5037183;28;20071;-72
2021/09/15 02:39:06;;;;;;;10.98;7.22;;;19.80;79.30;;;;;;5035927;28;20525;-72
2021/09/15 02:41:32;;;;;;;10.25;6.57;;;19.80;79.40;;;;;;5035737;28;20136;-72
2021/09/15 02:43:58;;;;;;;10.50;6.82;;;19.80;78.70;;;;;;5037208;28;20029;-72
2021/09/15 02:46:23;;;;;;;11.23;7.25;;;19.80;78.90;;;;;;5037086;28;20083;-72
2021/09/15 02:48:49;;;;;;;13.57;8.10;;;19.80;79.60;;;;;;5037282;28;20032;-72
2021/09/15 02:51:15;;;;;;;15.82;7.60;;;19.80;79.60;;;;;;5037000;28;20017;-72
2021/09/15 02:53:41;;;;;;;14.27;8.50;;;19.80;79.30;;;;;;5036867;28;20482;-72
2021/09/15 02:56:07;;;;;;;14.00;8.05;;;19.80;78.90;;;;;;5036960;28;20037;-72
2021/09/15 02:58:32;;;;;;;12.52;7.82;;;19.70;78.70;;;;;;5037132;28;20479;-72
2021/09/15 03:00:58;;;;;;;13.32;7.18;;;19.70;78.80;;;;;;5036939;28;20454;-72
2021/09/15 03:03:24;;;;;;;13.35;9.32;;;19.70;78.10;;;;;;5037019;28;20072;-72
2021/09/15 03:05:50;;;;;;;12.25;7.68;;;19.70;78.70;;;;;;5037086;28;20021;-72
2021/09/15 03:08:16;;;;;;;15.85;8.63;;;19.70;78.10;;;;;;5037110;28;20061;-72
2021/09/15 03:10:41;;;;;;;14.90;8.20;;;19.70;78.60;;;;;;5036528;28;20024;-72
2021/09/15 03:13:07;;;;;;;13.40;8.20;;;19.70;78.70;;;;;;5036928;28;20028;-72
2021/09/15 03:15:33;;;;;;;13.45;8.38;;;19.70;78.30;;;;;;5023468;28;20082;-72
2021/09/15 03:17:59;;;;;;;15.73;8.10;;;19.70;78.60;;;;;;5037055;28;20108;-72
2021/09/15 03:20:25;;;;;;;12.38;7.22;;;19.70;78.20;;;;;;5036754;28;20033;-72
2021/09/15 03:22:50;;;;;;;13.82;8.00;;;19.70;77.70;;;;;;5034426;28;20109;-71
2021/09/15 03:25:16;;;;;;;13.65;8.07;;;19.70;78.00;;;;;;5036542;28;20027;-72
2021/09/15 03:27:42;;;;;;;14.20;8.30;;;19.60;78.20;;;;;;5036944;28;20022;-72
2021/09/15 03:30:09;;;;;;;13.35;8.57;;;19.70;78.90;;;;;;5036629;28;20025;-72
2021/09/15 03:32:34;;;;;;;13.82;9.10;;;19.70;78.50;;;;;;5037700;28;20373;-72
2021/09/15 03:35:00;;;;;;;16.55;9.15;;;19.60;78.70;;;;;;5040039;28;20068;-72
2021/09/15 03:37:26;;;;;;;12.63;7.57;;;19.60;78.80;;;;;;5040351;28;20076;-72
2021/09/15 03:39:52;;;;;;;16.15;8.70;;;19.60;78.10;;;;;;5039794;28;20022;-72
2021/09/15 03:42:18;;;;;;;12.40;7.32;;;19.60;78.70;;;;;;5040080;28;20037;-72
2021/09/15 03:44:43;;;;;;;14.75;9.55;;;19.60;78.20;;;;;;5040148;28;20385;-72
2021/09/15 03:47:09;;;;;;;13.15;8.65;;;19.60;79.00;;;;;;5040156;28;20025;-72
2021/09/15 03:49:35;;;;;;;16.75;10.68;;;19.60;78.70;;;;;;5040026;28;20392;-72
2021/09/15 03:52:01;;;;;;;17.35;10.25;;;19.60;79.30;;;;;;5040022;28;20108;-72
2021/09/15 03:54:27;;;;;;;16.55;10.48;;;19.60;78.90;;;;;;5039682;28;20021;-72
2021/09/15 03:56:53;;;;;;;17.45;11.05;;;19.50;78.70;;;;;;5039957;28;20408;-72
2021/09/15 03:59:19;;;;;;;15.25;9.88;;;19.50;78.60;;;;;;5039818;28;20104;-72
2021/09/15 04:01:44;;;;;;;15.52;10.57;;;19.50;78.40;;;;;;5040098;28;20056;-73
2021/09/15 04:04:10;;;;;;;21.20;11.88;;;19.50;78.50;;;;;;5039579;28;20013;-72
2021/09/15 04:06:36;;;;;;;21.85;13.55;;;19.50;78.90;;;;;;5038506;28;20026;-73
2021/09/15 04:09:02;;;;;;;22.45;13.15;;;19.50;78.70;;;;;;5039550;28;20033;-72
2021/09/15 04:11:28;;;;;;;27.35;14.07;;;19.50;79.10;;;;;;5039906;28;20383;-72
2021/09/15 04:13:54;;;;;;;25.52;15.07;;;19.50;78.70;;;;;;5036436;28;20026;-72
2021/09/15 04:16:19;;;;;;;30.13;16.98;;;19.50;78.80;;;;;;5028347;28;20021;-72
2021/09/15 04:18:45;;;;;;;26.63;16.42;;;19.50;79.20;;;;;;5039570;28;20026;-72
2021/09/15 04:21:11;;;;;;;28.48;17.13;;;19.40;78.90;;;;;;5039580;28;20083;-72
2021/09/15 04:31:52;;;;;;;34.83;19.05;;;19.40;78.80;;;;;;5039306;28;20064;-73
2021/09/15 04:34:17;;;;;;;34.17;18.90;;;19.40;79.30;;;;;;5039180;28;20045;-73
2021/09/15 04:36:45;;;;;;;37.78;20.73;;;19.40;79.00;;;;;;5039338;28;20050;-74
2021/09/15 04:39:10;;;;;;;32.63;19.20;;;19.40;79.40;;;;;;5039124;28;20075;-73
2021/09/15 04:41:36;;;;;;;35.40;19.77;;;19.40;78.90;;;;;;5038880;28;20135;-75
2021/09/15 04:44:02;;;;;;;36.85;21.00;;;19.30;79.20;;;;;;5039035;28;20022;-75
2021/09/15 04:46:28;;;;;;;39.03;22.10;;;19.30;79.60;;;;;;5037833;28;20108;-75
2021/09/15 04:48:54;;;;;;;33.95;19.80;;;19.30;79.40;;;;;;5037697;28;20056;-75
2021/09/15 04:51:21;;;;;;;41.75;21.85;;;19.30;79.00;;;;;;5038742;28;20108;-75
2021/09/15 04:53:46;;;;;;;36.22;20.85;;;19.30;80.10;;;;;;5038563;28;20454;-75
2021/09/15 04:56:12;;;;;;;40.55;24.05;;;19.30;79.40;;;;;;5038675;28;20029;-76
2021/09/15 04:58:38;;;;;;;41.45;23.40;;;19.30;79.60;;;;;;5038716;28;20028;-77
2021/09/15 05:01:05;;;;;;;48.65;25.70;;;19.30;79.20;;;;;;5037505;28;20030;-76
2021/09/15 05:03:31;;;;;;;45.10;25.40;;;19.30;80.20;;;;;;5037501;28;20033;-76
2021/09/15 05:05:57;;;;;;;47.58;26.50;;;19.30;80.40;;;;;;5037092;28;20025;-79
2021/09/15 05:08:23;;;;;;;42.15;23.85;;;19.20;80.10;;;;;;5038589;28;20078;-74
2021/09/15 05:10:48;;;;;;;46.95;26.23;;;19.20;79.70;;;;;;5038058;28;20013;-75
2021/09/15 05:13:14;;;;;;;46.65;24.50;;;19.20;80.00;;;;;;5038539;28;20021;-73
2021/09/15 05:15:41;;;;;;;44.70;23.90;;;19.20;79.60;;;;;;5024987;28;20029;-72
2021/09/15 05:18:07;;;;;;;41.83;24.98;;;19.20;79.30;;;;;;5038443;28;20035;-74
2021/09/15 05:20:33;;;;;;;45.15;25.27;;;19.20;79.10;;;;;;5037702;28;20029;-74
2021/09/15 05:22:59;;;;;;;46.30;26.30;;;19.20;79.70;;;;;;5035234;28;20025;-74
2021/09/15 05:25:25;;;;;;;45.67;22.88;;;19.20;79.90;;;;;;5037470;28;20455;-75
2021/09/15 05:27:51;;;;;;;48.97;24.52;;;19.20;79.30;;;;;;5038111;28;20035;-76
2021/09/15 05:30:17;;;;;;;44.05;24.83;;;19.20;79.00;;;;;;5037907;28;20100;-74
2021/09/15 05:32:43;;;;;;;47.58;25.98;;;19.10;79.10;;;;;;5038079;28;20064;-75
2021/09/15 05:35:11;;;;;;;49.45;26.40;;;19.20;79.80;;;;;;5037786;28;20049;-76
2021/09/15 05:37:38;;;;;;;43.65;23.95;;;19.10;79.20;;;;;;5038110;28;20036;-76
2021/09/15 05:40:06;;;;;;;44.67;23.80;;;19.10;78.80;;;;;;5037587;28;20548;-76
2021/09/15 05:42:32;;;;;;;41.92;23.48;;;19.10;78.90;;;;;;5038039;28;20030;-76
2021/09/15 05:45:01;;;;;;;43.17;23.30;;;19.10;79.00;;;;;;5037784;28;20029;-76
2021/09/15 05:47:29;;;;;;;48.55;27.02;;;19.10;78.80;;;;;;5037843;28;20484;-76
2021/09/15 05:49:55;;;;;;;47.47;27.00;;;19.10;79.50;;;;;;5037721;28;20033;-74
2021/09/15 05:52:20;;;;;;;48.97;26.95;;;19.10;79.50;;;;;;5037752;28;20030;-74
2021/09/15 05:54:47;;;;;;;49.72;27.05;;;19.10;80.50;;;;;;5037025;28;20026;-75
2021/09/15 05:57:13;;;;;;;50.13;25.50;;;19.10;81.00;;;;;;5037577;28;20025;-75
2021/09/15 05:59:38;;;;;;;43.60;24.10;;;19.10;80.80;;;;;;5037436;28;20088;-75
2021/09/15 06:02:04;;;;;;;38.78;21.45;;;19.10;80.60;;;;;;5036402;28;20029;-75
2021/09/15 06:04:30;;;;;;;38.67;22.00;;;19.10;80.70;;;;;;5035977;28;20056;-75
2021/09/15 06:06:56;;;;;;;42.75;22.05;;;19.00;80.40;;;;;;5036126;28;20618;-75
2021/09/15 06:09:21;;;;;;;36.45;20.33;;;19.00;80.00;;;;;;5037071;28;20439;-74
2021/09/15 06:11:47;;;;;;;39.72;21.80;;;19.00;79.90;;;;;;5037517;28;20017;-75
2021/09/15 06:14:13;;;;;;;39.13;21.98;;;19.00;80.50;;;;;;5032632;28;20026;-74
2021/09/15 06:16:39;;;;;;;41.08;22.17;;;19.00;80.10;;;;;;5029225;28;20025;-74
2021/09/15 06:19:05;;;;;;;37.58;23.30;;;19.00;80.50;;;;;;5037333;28;20057;-74
2021/09/15 06:21:30;;;;;;;40.63;22.67;;;19.00;80.70;;;;;;5036061;28;20440;-75
2021/09/15 06:23:56;;;;;;;36.78;21.10;;;19.00;81.10;;;;;;5035092;28;20074;-77
2021/09/15 06:26:26;;;;;;;38.83;21.33;;;19.00;80.70;;;;;;5037454;28;20033;-77
2021/09/15 06:28:52;;;;;;;35.63;21.30;;;19.00;81.30;;;;;;5037208;28;20018;-75
2021/09/15 06:31:19;;;;;;;39.13;22.75;;;19.00;81.20;;;;;;5037315;28;20456;-75
2021/09/15 06:33:45;;;;;;;34.25;20.50;;;19.00;81.50;;;;;;5036956;28;20045;-75
2021/09/15 06:36:12;;;;;;;34.92;22.08;;;19.00;81.50;;;;;;5037308;28;20022;-75
2021/09/15 06:38:37;;;;;;;29.73;19.02;;;19.00;82.20;;;;;;5036790;28;20053;-75
2021/09/15 06:41:03;;;;;;;32.15;19.08;;;18.90;81.50;;;;;;5037352;28;20033;-75
2021/09/15 06:43:29;;;;;;;36.70;20.98;;;18.90;81.20;;;;;;5035704;28;20033;-75
2021/09/15 06:45:55;;;;;;;30.23;19.23;;;18.90;81.50;;;;;;5036073;28;20084;-75
2021/09/15 06:48:21;;;;;;;30.98;19.10;;;18.90;82.00;;;;;;5036959;28;20434;-75
2021/09/15 06:50:47;;;;;;;31.27;18.63;;;18.90;82.20;;;;;;5037471;28;20107;-75
2021/09/15 06:53:13;;;;;;;36.22;18.42;;;19.00;82.10;;;;;;5037010;28;20022;-75
2021/09/15 06:55:39;;;;;;;32.53;20.00;;;19.00;83.20;;;;;;5036810;28;20052;-75
2021/09/15 06:58:05;;;;;;;33.45;19.42;;;19.10;83.30;;;;;;5036920;28;20432;-75
2021/09/15 07:00:31;;;;;;;29.40;17.70;;;19.20;82.90;;;;;;5037058;28;20057;-75
2021/09/15 07:02:57;;;;;;;30.23;17.02;;;19.20;82.40;;;;;;5023743;28;20037;-76
2021/09/15 07:05:24;;;;;;;27.83;16.98;;;19.30;81.90;;;;;;5036919;28;20022;-76
2021/09/15 07:07:50;;;;;;;34.97;19.13;;;19.30;82.10;;;;;;5038537;28;20100;-76
2021/09/15 07:10:17;;;;;;;26.00;16.40;;;19.30;82.10;;;;;;5040396;28;20065;-75
2021/09/15 07:12:44;;;;;;;28.42;15.95;;;19.30;81.30;;;;;;5041156;28;20021;-75
2021/09/15 07:15:11;;;;;;;26.13;16.02;;;19.30;81.40;;;;;;5028417;28;20037;-75
2021/09/15 07:17:37;;;;;;;26.00;15.68;;;19.30;81.30;;;;;;5039810;28;20032;-75
2021/09/15 07:20:04;;;;;;;26.48;18.00;;;19.20;81.10;;;;;;5040658;28;20025;-75
2021/09/15 07:22:30;;;;;;;26.25;16.50;;;19.30;81.80;;;;;;5038176;28;20075;-75
2021/09/15 07:24:56;;;;;;;22.48;14.57;;;19.30;81.60;;;;;;5040224;28;20025;-76
2021/09/15 07:27:22;;;;;;;23.85;14.65;;;19.30;80.90;;;;;;5040476;28;20024;-75
2021/09/15 07:29:48;;;;;;;23.15;15.20;;;19.30;81.40;;;;;;5040364;28;20064;-75
2021/09/15 07:32:14;;;;;;;24.30;15.32;;;19.30;81.60;;;;;;5040448;28;20026;-75
2021/09/15 07:34:41;;;;;;;24.33;14.50;;;19.30;81.80;;;;;;5040229;28;20072;-75
2021/09/15 07:37:07;;;;;;;23.40;13.32;;;19.30;81.00;;;;;;5039066;28;20029;-75
2021/09/15 07:39:33;;;;;;;26.83;15.57;;;19.30;81.20;;;;;;5040008;28;20036;-75
2021/09/15 07:41:59;;;;;;;21.75;13.95;;;19.30;81.30;;;;;;5040186;28;20025;-76
2021/09/15 07:44:25;;;;;;;24.42;14.55;;;19.30;81.00;;;;;;5040141;28;20061;-76
2021/09/15 07:46:51;;;;;;;22.88;13.93;;;19.40;80.90;;;;;;5040165;28;20024;-76
2021/09/15 07:49:17;;;;;;;21.20;13.30;;;19.40;80.50;;;;;;5040021;28;20081;-75
2021/09/15 07:51:42;;;;;;;21.92;14.35;;;19.40;80.50;;;;;;5040140;28;20476;-76
2021/09/15 07:54:08;;;;;;;21.70;14.07;;;19.40;80.30;;;;;;5039495;28;20404;-76
2021/09/15 07:56:34;;;;;;;24.88;15.63;;;19.40;80.50;;;;;;5040428;28;20028;-75
2021/09/15 07:59:00;;;;;;;25.00;16.55;;;19.40;80.70;;;;;;5039761;28;20141;-76
2021/09/15 08:01:26;;;;;;;25.25;16.48;;;19.40;81.00;;;;;;5038554;28;20018;-76
2021/09/15 08:03:52;;;;;;;26.95;15.50;;;19.40;80.90;;;;;;5039576;28;20025;-76
2021/09/15 08:06:19;;;;;;;24.58;16.00;;;19.40;80.40;;;;;;5039891;28;20101;-76
2021/09/15 08:08:45;;;;;;;23.45;16.55;;;19.50;80.40;;;;;;5039424;28;20028;-76
2021/09/15 08:11:11;;;;;;;28.95;18.50;;;19.50;80.50;;;;;;5039629;28;20032;-76
2021/09/15 08:13:37;;;;;;;27.63;17.92;;;19.50;81.00;;;;;;5039696;28;20175;-76
2021/09/15 08:16:03;;;;;;;25.38;17.35;;;19.60;80.90;;;;;;5026027;28;20056;-76
2021/09/15 08:18:29;;;;;;;22.60;16.48;;;19.60;80.20;;;;;;5039283;28;20036;-76
2021/09/15 08:20:55;;;;;;;24.38;16.58;;;19.70;80.10;;;;;;5039581;28;20407;-76
2021/09/15 08:23:21;;;;;;;24.00;16.20;;;19.70;80.00;;;;;;5036592;28;20057;-77
2021/09/15 08:25:47;;;;;;;23.17;15.00;;;19.80;79.50;;;;;;5039238;28;20026;-76
2021/09/15 08:28:13;;;;;;;24.02;15.68;;;19.80;79.50;;;;;;5039410;28;20112;-76
2021/09/15 08:30:40;;;;;;;24.30;15.45;;;19.80;79.30;;;;;;5039231;28;20017;-77
2021/09/15 08:33:06;;;;;;;21.15;13.82;;;19.90;79.80;;;;;;5039288;28;20072;-77
2021/09/15 08:35:32;;;;;;;20.98;14.00;;;19.90;79.30;;;;;;5024906;28;20054;-77
2021/09/15 08:37:58;;;;;;;22.52;15.02;;;19.90;79.50;;;;;;5039356;28;20060;-77
2021/09/15 08:40:25;;;;;;;22.35;15.65;;;20.00;79.30;;;;;;5037576;28;20029;-77
2021/09/15 08:42:51;;;;;;;27.95;15.60;;;20.10;79.40;;;;;;5039250;28;20057;-77
2021/09/15 08:45:19;;;;;;;25.75;17.05;;;20.10;79.30;;;;;;5039222;28;20014;-77
2021/09/15 08:47:47;;;;;;;28.40;16.63;;;20.20;79.50;;;;;;5039366;28;20021;-76
2021/09/15 08:50:15;;;;;;;24.30;16.55;;;20.20;79.40;;;;;;5039009;28;20376;-76
2021/09/15 08:52:42;;;;;;;26.05;16.60;;;20.20;79.20;;;;;;5038880;28;20025;-76
2021/09/15 08:55:09;;;;;;;22.42;15.15;;;20.30;79.40;;;;;;5038526;28;20388;-76
2021/09/15 08:57:35;;;;;;;20.35;13.73;;;20.30;79.00;;;;;;5038658;28;20026;-76
2021/09/15 09:00:01;;;;;;;24.10;14.07;;;20.40;78.80;;;;;;5038994;28;20471;-76
2021/09/15 09:02:35;;;;;;;23.05;13.45;;;20.40;78.50;;;;;;5038504;28;20029;-76
2021/09/15 09:05:01;;;;;;;20.50;14.10;;;20.40;78.40;;;;;;5038727;28;20084;-76
2021/09/15 09:07:31;;;;;;;22.48;14.00;;;20.40;78.30;;;;;;5038526;28;20123;-76
2021/09/15 09:10:00;;;;;;;17.60;11.95;;;20.40;78.50;;;;;;5038322;28;20383;-76
2021/09/15 09:12:28;;;;;;;18.92;12.98;;;20.50;78.30;;;;;;5039024;28;20026;-76
2021/09/15 09:15:25;;;;;;;20.40;12.93;;;20.60;78.30;;;;;;5029151;28;20026;-76
2021/09/15 09:17:52;;;;;;;22.23;14.85;;;20.50;78.10;;;;;;5024942;28;20381;-76
2021/09/15 09:20:40;;;;;;;20.52;13.45;;;20.50;78.00;;;;;;5036917;28;20514;-76
2021/09/15 09:23:13;;;;;;;19.92;14.65;;;20.50;77.70;;;;;;5036956;28;20065;-76
2021/09/15 09:25:52;;;;;;;21.45;13.70;;;20.40;78.00;;;;;;5037955;28;20082;-76
2021/09/15 09:28:29;;;;;;;17.95;11.43;;;20.40;78.30;;;;;;5038442;28;20380;-76
2021/09/15 09:31:02;;;;;;;22.48;12.57;;;20.40;78.00;;;;;;5037900;28;20032;-76
2021/09/15 09:33:28;;;;;;;17.05;11.18;;;20.40;78.20;;;;;;5037821;28;20420;-76
2021/09/15 09:35:57;;;;;;;18.77;12.00;;;20.50;77.80;;;;;;5038226;28;20104;-76
2021/09/15 09:38:33;;;;;;;15.00;9.60;;;20.40;77.60;;;;;;5037626;28;20045;-76
2021/09/15 09:41:16;;;;;;;14.52;9.60;;;20.40;77.30;;;;;;5038004;28;20468;-76
2021/09/15 09:43:50;;;;;;;15.68;9.15;;;20.40;77.60;;;;;;5025377;28;20032;-76
2021/09/15 09:46:21;;;;;;;13.55;9.82;;;20.30;77.70;;;;;;5037825;28;20021;-75
2021/09/15 09:48:53;;;;;;;16.42;9.20;;;20.30;77.50;;;;;;5037912;28;20017;-76
2021/09/15 09:51:22;;;;;;;;;;;20.30;77.30;;;;;;5036910;28;20085;-76
2021/09/15 09:53:49;;;;;;;19.17;11.05;;;20.20;77.60;;;;;;5037385;28;20334;-75
2021/09/15 09:56:15;;;;;;;13.90;9.68;;;20.20;77.50;;;;;;5037668;28;20028;-76
2021/09/15 09:58:45;;;;;;;14.27;9.15;;;20.20;77.50;;;;;;5037908;28;20053;-76
2021/09/15 10:01:18;;;;;;;14.00;8.90;;;20.10;77.20;;;;;;5037490;28;20104;-75
2021/09/15 10:03:45;;;;;;;14.18;8.95;;;20.10;77.20;;;;;;5036226;28;20033;-76
2021/09/15 10:06:11;;;;;;;13.75;9.25;;;20.10;77.30;;;;;;5037404;28;20044;-75
2021/09/15 10:08:37;;;;;;;12.65;8.25;;;20.10;77.70;;;;;;5037211;28;20057;-75
2021/09/15 10:11:03;;;;;;;14.38;9.57;;;20.10;77.60;;;;;;5037435;28;20029;-75
2021/09/15 10:13:29;;;;;;;18.08;10.00;;;20.10;77.90;;;;;;5037437;28;20025;-75
2021/09/15 10:16:03;;;;;;;12.18;8.40;;;20.20;78.00;;;;;;5024097;28;20025;-75
2021/09/15 10:18:29;;;;;;;14.10;9.02;;;20.40;78.00;;;;;;5037597;28;20432;-75
2021/09/15 10:20:58;;;;;;;13.23;7.85;;;20.50;77.90;;;;;;5037394;28;20022;-75
2021/09/15 10:23:39;;;;;;;15.25;8.07;;;20.60;77.80;;;;;;5034611;28;20057;-76
2021/09/15 10:26:36;;;;;;;12.63;7.50;;;20.70;77.40;;;;;;5037345;28;20063;-75
2021/09/15 10:29:23;;;;;;;12.25;7.40;;;20.80;77.10;;;;;;5023893;28;20037;-75
2021/09/15 10:32:04;;;;;;;14.40;8.23;;;20.80;76.60;;;;;;5037234;28;20022;-75
2021/09/15 10:34:39;;;;;;;14.18;7.95;;;20.80;76.30;;;;;;5037430;28;20052;-75
2021/09/15 10:37:11;;;;;;;13.60;8.07;;;20.80;76.30;;;;;;5026840;28;20052;-75
2021/09/15 10:40:00;;;;;;;13.57;8.40;;;20.70;76.30;;;;;;5042436;28;20061;-75
2021/09/15 10:42:48;;;;;;;11.82;8.40;;;20.70;76.20;;;;;;5039821;28;20026;-75
2021/09/15 10:45:18;;;;;;;11.35;7.78;;;20.60;76.30;;;;;;5041500;28;20025;-75
2021/09/15 10:48:11;;;;;;;14.60;8.60;;;20.60;76.30;;;;;;5041416;28;20014;-75
2021/09/15 10:50:40;;;;;;;14.10;7.85;;;20.60;76.30;;;;;;5041541;28;20540;-75
2021/09/15 10:53:16;;;;;;;14.70;9.05;;;20.50;76.20;;;;;;5040929;28;20146;-75
2021/09/15 10:55:57;;;;;;;14.45;8.85;;;20.50;76.50;;;;;;5041247;28;20025;-75
2021/09/15 10:58:25;;;;;;;16.58;8.95;;;20.40;76.30;;;;;;5041455;28;20025;-75
2021/09/15 11:01:01;;;;;;;13.75;8.32;;;20.40;76.40;;;;;;5041069;28;20116;-75
2021/09/15 11:03:31;;;;;;;13.35;8.60;;;20.40;76.80;;;;;;5040912;28;20026;-75
2021/09/15 11:06:21;;;;;;;11.65;8.02;;;20.40;76.70;;;;;;5040998;28;20491;-75
2021/09/15 11:08:54;;;;;;;15.00;8.60;;;20.40;76.70;;;;;;5040632;28;20501;-75
2021/09/15 11:11:20;;;;;;;10.23;7.10;;;20.50;76.60;;;;;;5041117;28;20028;-75
2021/09/15 11:13:49;;;;;;;13.48;8.32;;;20.60;76.70;;;;;;5040669;28;20391;-75
2021/09/15 11:16:30;;;;;;;15.02;7.53;;;20.70;76.80;;;;;;5040790;28;20029;-75
2021/09/15 11:19:09;;;;;;;15.23;8.23;;;20.80;76.70;;;;;;5040601;28;20029;-75
2021/09/15 11:21:41;;;;;;;12.50;7.60;;;21.00;76.50;;;;;;5040755;28;20048;-75
2021/09/15 11:24:14;;;;;;;15.15;7.97;;;21.10;76.30;;;;;;5040161;28;20022;-76
2021/09/15 11:26:44;;;;;;;12.75;8.02;;;21.20;76.30;;;;;;5039250;28;20392;-75
2021/09/15 11:29:11;;;;;;;13.57;8.50;;;21.20;76.20;;;;;;5040845;28;20032;-75
2021/09/15 11:31:39;;;;;;;12.15;8.00;;;21.30;76.20;;;;;;5040514;28;20037;-75
2021/09/15 11:34:07;;;;;;;15.52;8.18;;;21.50;75.80;;;;;;5028067;28;20129;-75
2021/09/15 11:36:33;;;;;;;12.07;7.88;;;21.50;75.50;;;;;;5040269;28;20057;-75
2021/09/15 11:39:00;;;;;;;13.32;7.80;;;21.70;75.40;;;;;;5040304;28;20032;-75
2021/09/15 11:41:26;;;;;;;13.48;7.60;;;21.80;75.00;;;;;;5038887;28;20029;-75
2021/09/15 11:43:52;;;;;;;14.23;8.13;;;21.90;74.90;;;;;;5040184;28;20029;-75
2021/09/15 11:46:19;;;;;;;13.10;7.72;;;21.90;74.30;;;;;;5040349;28;20105;-76
2021/09/15 11:48:45;;;;;;;13.40;7.82;;;22.00;74.20;;;;;;5040181;28;20017;-75
2021/09/15 11:51:23;;;;;;;11.73;7.22;;;22.00;74.00;;;;;;5040061;28;20101;-75
2021/09/15 11:54:28;;;;;;;11.13;7.55;;;22.10;73.60;;;;;;5039096;28;20025;-75
2021/09/15 11:57:04;;;;;;;12.80;7.30;;;22.20;73.50;;;;;;5037914;28;20041;-75
2021/09/15 11:59:31;;;;;;;13.07;8.35;;;22.30;73.50;;;;;;5039866;28;20083;-75
2021/09/15 12:01:57;;;;;;;12.95;7.22;;;22.40;72.80;;;;;;5039766;28;20022;-75
2021/09/15 12:04:25;;;;;;;13.30;7.20;;;22.60;72.50;;;;;;5038457;28;20056;-75
2021/09/15 12:06:51;;;;;;;12.43;7.40;;;22.80;72.90;;;;;;5039794;28;20537;-75
2021/09/15 12:09:18;;;;;;;12.90;7.18;;;23.00;73.30;;;;;;5039346;28;20025;-75
2021/09/15 12:11:48;;;;;;;10.93;6.95;;;23.30;72.70;;;;;;5039760;28;20018;-75
2021/09/15 12:14:15;;;;;;;10.05;6.80;;;23.50;72.70;;;;;;5039435;28;20017;-75
2021/09/15 12:16:42;;;;;;;12.15;7.78;;;23.70;71.80;;;;;;5039924;28;20079;-75
2021/09/15 12:19:16;;;;;;;14.98;7.53;;;23.90;70.50;;;;;;5039482;28;20025;-75
2021/09/15 12:21:45;;;;;;;9.30;6.53;;;23.90;69.80;;;;;;5039775;28;20588;-76
2021/09/15 12:24:11;;;;;;;10.85;6.88;;;23.80;69.80;;;;;;5039108;28;20063;-76
2021/09/15 12:26:37;;;;;;;12.65;7.00;;;23.70;70.00;;;;;;5038154;28;20032;-76
2021/09/15 12:29:15;;;;;;;12.65;7.00;;;23.70;69.40;;;;;;5039428;28;20025;-76
2021/09/15 12:31:42;;;;;;;12.55;6.97;;;23.60;68.90;;;;;;5039411;28;20028;-76
2021/09/15 12:34:09;;;;;;;9.70;6.78;;;23.50;69.00;;;;;;5039203;28;20496;-76
2021/09/15 12:36:35;;;;;;;10.98;6.47;;;23.50;69.20;;;;;;5039223;28;20029;-76
2021/09/15 12:39:14;;;;;;;12.23;7.40;;;23.40;69.40;;;;;;5038971;28;20887;-76
2021/09/15 12:41:55;;;;;;;11.77;6.40;;;23.30;69.00;;;;;;5039056;28;20017;-76